createdAt,value
2022-12-06T00:01:59.045Z,7.30
2022-12-06T00:04:28.266Z,7.30
2022-12-06T00:06:57.441Z,7.30
2022-12-06T00:09:25.944Z,7.30
2022-12-06T00:11:53.965Z,7.30
2022-12-06T00:14:21.782Z,7.40
2022-12-06T00:16:50.015Z,7.40
2022-12-06T00:19:18.852Z,7.40
2022-12-06T00:21:48.433Z,7.40
2022-12-06T00:24:17.157Z,7.40
2022-12-06T00:26:46.149Z,7.40
2022-12-06T00:29:14.532Z,7.40
2022-12-06T00:31:42.459Z,7.40
2022-12-06T00:34:10.293Z,7.40
2022-12-06T00:36:39.476Z,7.40
2022-12-06T00:39:09.825Z,7.40
2022-12-06T00:41:37.920Z,7.40
2022-12-06T00:44:06.106Z,7.30
2022-12-06T00:46:34.308Z,7.30
2022-12-06T00:49:02.824Z,7.30
2022-12-06T00:51:31.738Z,7.40
2022-12-06T00:53:59.872Z,7.40
2022-12-06T00:56:28.996Z,7.40
2022-12-06T00:58:56.754Z,7.40
2022-12-06T01:01:25.627Z,7.40
2022-12-06T01:03:54.181Z,7.40
2022-12-06T01:06:23.788Z,7.30
2022-12-06T01:08:51.519Z,7.10
2022-12-06T01:11:19.218Z,7.10
2022-12-06T01:13:48.267Z,7.10
2022-12-06T01:16:16.685Z,7.20
2022-12-06T01:18:45.286Z,7.20
2022-12-06T01:21:13.845Z,7.20
2022-12-06T01:23:41.580Z,7.20
2022-12-06T01:26:09.271Z,7.10
2022-12-06T01:28:37.001Z,7.00
2022-12-06T01:31:08.710Z,6.80
2022-12-06T01:33:36.496Z,6.70
2022-12-06T01:36:04.271Z,6.70
2022-12-06T01:38:32.034Z,6.60
2022-12-06T01:40:59.893Z,6.70
2022-12-06T01:43:32.097Z,6.90
2022-12-06T01:46:03.259Z,6.90
2022-12-06T01:48:33.143Z,7.00
2022-12-06T01:51:01.703Z,7.00
2022-12-06T01:53:31.951Z,7.20
2022-12-06T01:55:59.645Z,7.20
2022-12-06T01:58:30.305Z,7.20
2022-12-06T02:00:58.020Z,7.20
2022-12-06T02:03:28.194Z,7.20
2022-12-06T02:05:57.693Z,7.20
2022-12-06T02:08:25.637Z,7.30
2022-12-06T02:10:53.533Z,7.20
2022-12-06T02:13:21.905Z,7.20
2022-12-06T02:15:54.532Z,7.20
2022-12-06T02:18:27.135Z,7.20
2022-12-06T02:21:00.941Z,7.20
2022-12-06T02:23:36.468Z,7.20
2022-12-06T02:26:18.585Z,7.20
2022-12-06T02:29:09.075Z,7.30
2022-12-06T02:31:39.892Z,7.30
2022-12-06T02:34:11.578Z,7.20
2022-12-06T02:36:42.416Z,7.10
2022-12-06T02:39:12.632Z,7.00
2022-12-06T02:41:42.904Z,6.90
2022-12-06T02:44:14.073Z,7.00
2022-12-06T02:46:43.798Z,7.00
2022-12-06T02:49:13.303Z,7.00
2022-12-06T02:51:41.149Z,6.90
2022-12-06T02:54:09.977Z,6.70
2022-12-06T02:56:37.661Z,6.80
2022-12-06T02:59:05.609Z,6.70
2022-12-06T03:01:34.194Z,6.70
2022-12-06T03:04:12.192Z,6.70
2022-12-06T03:06:48.921Z,6.60
2022-12-06T03:09:25.031Z,6.60
2022-12-06T03:11:56.614Z,6.60
2022-12-06T03:14:25.725Z,6.70
2022-12-06T03:16:56.985Z,6.80
2022-12-06T03:19:28.217Z,6.80
2022-12-06T03:21:58.822Z,6.80
2022-12-06T03:24:28.172Z,6.70
2022-12-06T03:26:57.536Z,6.70
2022-12-06T03:29:27.069Z,6.60
2022-12-06T03:31:55.682Z,6.70
2022-12-06T03:34:26.229Z,6.70
2022-12-06T03:36:55.882Z,6.50
2022-12-06T03:39:26.807Z,6.60
2022-12-06T03:41:56.648Z,6.60
2022-12-06T03:44:24.429Z,6.60
2022-12-06T03:46:54.881Z,6.60
2022-12-06T03:49:24.078Z,6.40
2022-12-06T03:51:51.789Z,6.40
2022-12-06T03:54:20.857Z,6.40
2022-12-06T03:56:48.587Z,6.40
2022-12-06T03:59:16.275Z,6.40
2022-12-06T04:01:44.017Z,6.50
2022-12-06T04:04:12.070Z,6.40
2022-12-06T04:06:39.752Z,6.40
2022-12-06T04:09:25.172Z,6.50
2022-12-06T04:11:54.182Z,6.50
2022-12-06T04:14:21.868Z,6.60
2022-12-06T04:17:07.073Z,6.70
2022-12-06T04:19:34.789Z,6.60
2022-12-06T04:22:20.051Z,6.60
2022-12-06T04:24:47.696Z,6.70
2022-12-06T04:27:34.400Z,6.70
2022-12-06T04:30:19.542Z,6.70
2022-12-06T04:33:04.735Z,6.70
2022-12-06T04:35:49.897Z,6.60
2022-12-06T04:38:35.015Z,6.60
2022-12-06T04:41:02.699Z,6.60
2022-12-06T04:43:42.699Z,6.70
2022-12-06T04:46:10.503Z,6.70
2022-12-06T04:48:38.234Z,6.60
2022-12-06T04:51:06.101Z,6.70
2022-12-06T04:53:34.305Z,6.80
2022-12-06T04:56:02.343Z,6.80
2022-12-06T04:58:30.029Z,6.80
2022-12-06T05:00:59.099Z,6.90
2022-12-06T05:03:26.914Z,6.90
2022-12-06T05:05:54.671Z,6.80
2022-12-06T05:08:22.706Z,6.70
2022-12-06T05:10:50.791Z,6.70
2022-12-06T05:13:19.084Z,6.70
2022-12-06T05:15:53.390Z,6.60
2022-12-06T05:18:22.578Z,6.50
2022-12-06T05:20:50.418Z,6.50
2022-12-06T05:23:18.627Z,6.50
2022-12-06T05:25:46.367Z,6.50
2022-12-06T05:28:14.042Z,6.50
2022-12-06T05:30:41.737Z,6.50
2022-12-06T05:33:09.570Z,6.60
2022-12-06T05:35:39.693Z,6.60
2022-12-06T05:38:07.378Z,6.60
2022-12-06T05:40:35.096Z,6.70
2022-12-06T05:43:02.767Z,6.70
2022-12-06T05:45:30.552Z,6.70
2022-12-06T05:47:58.355Z,6.80
2022-12-06T05:50:26.018Z,6.80
2022-12-06T05:52:55.901Z,6.90
2022-12-06T05:55:23.763Z,6.80
2022-12-06T05:57:51.508Z,6.80
2022-12-06T06:00:19.828Z,6.60
2022-12-06T06:02:47.906Z,6.60
2022-12-06T06:05:15.628Z,6.60
2022-12-06T06:07:43.375Z,6.60
2022-12-06T06:10:13.006Z,6.70
2022-12-06T06:12:40.688Z,6.70
2022-12-06T06:15:08.797Z,6.80
2022-12-06T06:17:36.507Z,6.80
2022-12-06T06:20:06.250Z,6.90
2022-12-06T06:22:34.268Z,6.90
2022-12-06T06:25:02.749Z,6.90
2022-12-06T06:27:33.716Z,7.00
2022-12-06T06:30:01.725Z,7.00
2022-12-06T06:32:29.619Z,7.00
2022-12-06T06:34:57.293Z,6.90
2022-12-06T06:37:24.948Z,6.80
2022-12-06T06:39:52.647Z,6.60
2022-12-06T06:42:20.315Z,6.40
2022-12-06T06:44:49.331Z,6.20
2022-12-06T06:47:17.008Z,6.00
2022-12-06T06:49:44.688Z,5.90
2022-12-06T06:52:12.374Z,5.80
2022-12-06T06:54:40.087Z,5.70
2022-12-06T06:57:09.555Z,5.60
2022-12-06T06:59:39.255Z,5.40
2022-12-06T07:02:08.460Z,5.40
2022-12-06T07:04:36.184Z,5.30
2022-12-06T07:07:03.868Z,5.10
2022-12-06T07:09:31.564Z,5.20
2022-12-06T07:11:59.244Z,5.10
2022-12-06T07:14:27.203Z,5.00
2022-12-06T07:16:55.103Z,4.90
2022-12-06T07:19:24.264Z,4.90
2022-12-06T07:21:52.093Z,4.90
2022-12-06T07:24:19.802Z,5.00
2022-12-06T07:26:47.586Z,5.00
2022-12-06T07:29:15.258Z,4.90
2022-12-06T07:31:42.957Z,4.90
2022-12-06T07:34:10.661Z,4.90
2022-12-06T07:36:39.655Z,4.80
2022-12-06T07:39:13.011Z,4.80
2022-12-06T07:41:59.448Z,4.70
2022-12-06T07:44:44.708Z,4.70
2022-12-06T07:47:12.392Z,4.80
2022-12-06T07:49:40.079Z,4.80
2022-12-06T07:52:09.162Z,4.80
2022-12-06T07:54:36.849Z,4.70
2022-12-06T07:57:04.562Z,4.70
2022-12-06T07:59:32.362Z,4.70
2022-12-06T08:02:00.131Z,4.70
2022-12-06T08:04:28.033Z,4.50
2022-12-06T08:06:56.283Z,4.40
2022-12-06T08:09:25.440Z,4.30
2022-12-06T08:11:53.155Z,4.30
2022-12-06T08:14:20.836Z,4.30
2022-12-06T08:16:48.518Z,4.20
2022-12-06T08:19:16.189Z,4.20
2022-12-06T08:21:43.920Z,4.20
2022-12-06T08:24:12.022Z,4.20
2022-12-06T08:26:41.180Z,4.30
2022-12-06T08:29:08.949Z,4.30
2022-12-06T08:31:36.787Z,4.40
2022-12-06T08:34:05.150Z,4.40
2022-12-06T08:36:32.884Z,4.40
2022-12-06T08:39:00.958Z,4.50
2022-12-06T08:41:46.075Z,4.60
2022-12-06T08:44:16.028Z,4.70
2022-12-06T08:46:43.800Z,4.70
2022-12-06T08:49:12.257Z,4.80
2022-12-06T08:51:40.031Z,4.80
2022-12-06T08:54:08.826Z,4.90
2022-12-06T08:56:37.110Z,4.80
2022-12-06T08:59:05.649Z,4.90
2022-12-06T09:01:38.062Z,4.90
2022-12-06T09:04:07.166Z,5.00
2022-12-06T09:06:34.929Z,5.10
2022-12-06T09:09:02.599Z,5.00
2022-12-06T09:11:30.322Z,5.10
2022-12-06T09:13:58.069Z,5.00
2022-12-06T09:16:26.003Z,5.00
2022-12-06T09:18:55.112Z,4.90
2022-12-06T09:21:23.608Z,5.00
2022-12-06T09:23:51.559Z,5.00
2022-12-06T09:26:19.265Z,5.00
2022-12-06T09:28:49.475Z,4.90
2022-12-06T09:31:17.438Z,5.00
2022-12-06T09:33:45.379Z,4.90
2022-12-06T09:36:16.270Z,4.90
2022-12-06T09:38:45.036Z,4.80
2022-12-06T09:41:21.573Z,4.80
2022-12-06T09:43:55.735Z,4.70
2022-12-06T09:46:28.764Z,4.70
2022-12-06T09:49:02.516Z,4.70
2022-12-06T09:51:41.149Z,4.80
2022-12-06T09:54:13.940Z,4.80
2022-12-06T09:56:43.465Z,4.90
2022-12-06T09:59:16.352Z,4.90
2022-12-06T10:01:51.862Z,4.90
2022-12-06T10:04:32.757Z,5.00
2022-12-06T10:07:08.201Z,4.90
2022-12-06T10:09:38.922Z,4.90
2022-12-06T10:12:11.745Z,4.90
2022-12-06T10:14:47.022Z,5.00
2022-12-06T10:17:21.173Z,5.10
2022-12-06T10:19:55.349Z,5.10
2022-12-06T10:22:31.112Z,5.10
2022-12-06T10:25:01.827Z,5.10
2022-12-06T10:27:34.554Z,5.10
2022-12-06T10:30:03.998Z,5.10
2022-12-06T10:32:51.886Z,5.10
2022-12-06T10:35:22.966Z,5.10
2022-12-06T10:37:59.631Z,5.20
2022-12-06T10:40:30.076Z,5.20
2022-12-06T10:43:01.318Z,5.20
2022-12-06T10:45:48.404Z,5.30
2022-12-06T10:48:18.767Z,5.50
2022-12-06T10:50:48.330Z,5.50
2022-12-06T10:53:19.882Z,5.50
2022-12-06T10:55:50.137Z,5.50
2022-12-06T10:58:20.309Z,5.60
2022-12-06T11:00:51.452Z,5.70
2022-12-06T11:03:21.833Z,5.60
2022-12-06T11:05:51.082Z,5.70
2022-12-06T11:08:22.947Z,5.80
2022-12-06T11:10:51.097Z,5.90
2022-12-06T11:13:21.315Z,5.80
2022-12-06T11:15:51.651Z,5.70
2022-12-06T11:18:19.547Z,5.60
2022-12-06T11:20:48.651Z,5.50
2022-12-06T11:23:22.640Z,5.50
2022-12-06T11:25:56.486Z,5.50
2022-12-06T11:28:28.544Z,5.50
2022-12-06T11:30:57.304Z,5.50
2022-12-06T11:33:28.392Z,5.50
2022-12-06T11:35:56.109Z,5.50
2022-12-06T11:38:25.156Z,5.50
2022-12-06T11:40:52.926Z,5.50
2022-12-06T11:43:24.115Z,5.50
2022-12-06T11:45:51.915Z,5.50
2022-12-06T11:48:20.633Z,5.50
2022-12-06T11:50:49.782Z,5.50
2022-12-06T11:53:21.465Z,5.50
2022-12-06T11:55:52.535Z,5.50
2022-12-06T11:58:25.112Z,5.50
2022-12-06T12:00:57.181Z,5.50
2022-12-06T12:03:28.738Z,5.50
2022-12-06T12:06:07.731Z,5.50
2022-12-06T12:08:35.827Z,5.40
2022-12-06T12:11:05.557Z,5.40
2022-12-06T12:13:45.415Z,5.50
2022-12-06T12:16:16.155Z,5.50
2022-12-06T12:18:49.841Z,5.60
2022-12-06T12:21:18.202Z,5.70
2022-12-06T12:23:46.669Z,5.70
2022-12-06T12:26:16.517Z,5.70
2022-12-06T12:28:44.927Z,5.80
2022-12-06T12:31:18.699Z,5.80
2022-12-06T12:33:46.679Z,6.00
2022-12-06T12:36:20.540Z,6.00
2022-12-06T12:38:53.103Z,6.00
2022-12-06T12:41:24.938Z,6.00
2022-12-06T12:44:13.781Z,5.90
2022-12-06T12:46:45.999Z,5.90
2022-12-06T12:49:25.056Z,5.90
2022-12-06T12:51:52.806Z,6.00
2022-12-06T12:54:23.046Z,6.00
2022-12-06T12:56:52.621Z,6.10
2022-12-06T12:59:21.691Z,6.10
2022-12-06T13:01:51.578Z,6.10
2022-12-06T13:04:26.279Z,6.10
2022-12-06T13:06:56.157Z,6.10
2022-12-06T13:09:26.800Z,6.20
2022-12-06T13:11:58.666Z,6.30
2022-12-06T13:14:27.128Z,6.30
2022-12-06T13:16:57.061Z,6.40
2022-12-06T13:19:29.577Z,6.30
2022-12-06T13:21:57.364Z,6.20
2022-12-06T13:24:26.852Z,6.30
2022-12-06T13:26:58.594Z,6.40
2022-12-06T13:29:30.840Z,6.30
2022-12-06T13:32:00.219Z,6.40
2022-12-06T13:34:36.055Z,6.30
2022-12-06T13:37:05.454Z,6.20
2022-12-06T13:39:37.230Z,6.20
2022-12-06T13:42:19.160Z,6.00
2022-12-06T13:44:52.841Z,5.90
2022-12-06T13:47:35.780Z,5.90
2022-12-06T13:50:23.475Z,5.80
2022-12-06T13:53:01.030Z,5.80
2022-12-06T13:55:43.581Z,5.80
2022-12-06T13:58:26.199Z,5.80
2022-12-06T14:00:56.379Z,5.80
2022-12-06T14:03:39.010Z,5.70
2022-12-06T14:06:14.881Z,5.60
2022-12-06T14:08:44.402Z,5.60
2022-12-06T14:11:14.700Z,5.60
2022-12-06T14:13:43.042Z,5.60
2022-12-06T14:16:16.299Z,5.60
2022-12-06T14:18:44.141Z,5.50
2022-12-06T14:21:20.492Z,5.50
2022-12-06T14:23:48.399Z,5.60
2022-12-06T14:26:19.350Z,5.50
2022-12-06T14:28:48.415Z,5.60
2022-12-06T14:31:20.252Z,5.60
2022-12-06T14:33:48.051Z,5.60
2022-12-06T14:36:18.194Z,5.60
2022-12-06T14:38:51.900Z,5.60
2022-12-06T14:41:36.994Z,5.60
2022-12-06T14:44:11.933Z,5.60
2022-12-06T14:46:41.059Z,5.60
2022-12-06T14:49:28.373Z,5.50
2022-12-06T14:51:56.060Z,5.60
2022-12-06T14:54:32.394Z,5.50
2022-12-06T14:57:00.194Z,5.60
2022-12-06T15:00:10.813Z,5.50
2022-12-06T15:02:22.140Z,5.50
2022-12-06T15:04:49.871Z,5.60
2022-12-06T15:07:31.135Z,5.60
2022-12-06T15:10:08.302Z,5.60
2022-12-06T15:12:54.903Z,5.70
2022-12-06T15:15:32.487Z,5.60
2022-12-06T15:18:05.696Z,5.60
2022-12-06T15:20:33.378Z,5.50
2022-12-06T15:23:01.056Z,5.60
2022-12-06T15:25:28.784Z,5.60
2022-12-06T15:27:56.470Z,5.60
2022-12-06T15:30:24.128Z,5.60
2022-12-06T15:32:51.816Z,5.60
2022-12-06T15:35:20.871Z,5.60
2022-12-06T15:37:50.500Z,5.60
2022-12-06T15:40:18.566Z,5.60
2022-12-06T15:42:46.238Z,5.60
2022-12-06T15:45:15.805Z,5.50
2022-12-06T15:47:43.820Z,5.40
2022-12-06T15:50:14.021Z,5.40
2022-12-06T15:52:43.045Z,5.40
2022-12-06T15:55:16.562Z,5.30
2022-12-06T15:57:44.232Z,5.20
2022-12-06T16:00:12.294Z,5.10
2022-12-06T16:02:40.010Z,5.00
2022-12-06T16:05:07.845Z,5.00
2022-12-06T16:07:35.720Z,5.00
2022-12-06T16:10:04.945Z,5.10
2022-12-06T16:12:52.623Z,5.10
2022-12-06T16:15:20.636Z,5.10
2022-12-06T16:17:48.303Z,5.20
2022-12-06T16:20:35.438Z,5.10
2022-12-06T16:23:21.278Z,5.10
2022-12-06T16:25:50.315Z,5.10
2022-12-06T16:28:18.007Z,5.10
2022-12-06T16:30:45.700Z,5.10
2022-12-06T16:33:16.021Z,5.00
2022-12-06T16:35:43.739Z,5.10
2022-12-06T16:38:13.186Z,5.00
2022-12-06T16:40:40.936Z,5.00
2022-12-06T16:43:10.102Z,5.00
2022-12-06T16:45:38.763Z,5.00
2022-12-06T16:48:07.443Z,5.00
2022-12-06T16:50:35.972Z,5.10
2022-12-06T16:53:04.004Z,5.10
2022-12-06T16:55:31.741Z,5.00
2022-12-06T16:58:23.809Z,5.00
2022-12-06T17:00:52.911Z,5.00
2022-12-06T17:03:20.627Z,5.10
2022-12-06T17:05:48.672Z,5.10
2022-12-06T17:08:21.948Z,5.10
2022-12-06T17:11:10.128Z,5.00
2022-12-06T17:13:37.818Z,5.00
2022-12-06T17:16:09.099Z,5.00
2022-12-06T17:18:36.827Z,5.00
2022-12-06T17:21:06.692Z,5.00
2022-12-06T17:23:34.366Z,5.00
2022-12-06T17:26:02.944Z,5.00
2022-12-06T17:28:30.745Z,4.90
2022-12-06T17:30:58.442Z,4.90
2022-12-06T17:33:27.494Z,5.00
2022-12-06T17:35:55.485Z,5.00
2022-12-06T17:38:23.230Z,5.00
2022-12-06T17:40:50.896Z,5.00
2022-12-06T17:43:18.722Z,5.10
2022-12-06T17:45:46.461Z,5.10
2022-12-06T17:48:14.183Z,5.10
2022-12-06T17:50:43.258Z,5.10
2022-12-06T17:53:11.137Z,5.10
2022-12-06T17:55:38.822Z,5.00
2022-12-06T17:58:06.518Z,5.00
2022-12-06T18:00:34.184Z,5.00
2022-12-06T18:03:01.906Z,4.90
2022-12-06T18:05:29.770Z,5.00
2022-12-06T18:07:58.866Z,5.00
2022-12-06T18:10:26.663Z,4.90
2022-12-06T18:12:55.998Z,4.80
2022-12-06T18:15:38.517Z,4.80
2022-12-06T18:18:06.506Z,4.80
2022-12-06T18:20:34.179Z,4.80
2022-12-06T18:23:03.210Z,4.80
2022-12-06T18:25:30.998Z,4.90
2022-12-06T18:27:58.686Z,4.90
2022-12-06T18:30:26.404Z,4.80
2022-12-06T18:32:54.127Z,4.90
2022-12-06T18:35:21.793Z,4.80
2022-12-06T18:37:49.488Z,4.80
2022-12-06T18:40:18.884Z,4.80
2022-12-06T18:42:46.606Z,4.80
2022-12-06T18:45:14.333Z,4.80
2022-12-06T18:47:42.020Z,4.80
2022-12-06T18:50:10.473Z,4.80
2022-12-06T18:52:38.308Z,4.80
2022-12-06T18:55:06.406Z,4.80
2022-12-06T18:57:38.354Z,4.70
2022-12-06T19:00:06.681Z,4.80
2022-12-06T19:02:34.489Z,4.80
2022-12-06T19:05:02.740Z,4.80
2022-12-06T19:07:30.892Z,4.80
2022-12-06T19:09:58.829Z,4.80
2022-12-06T19:12:26.873Z,4.80
2022-12-06T19:14:55.931Z,4.80
2022-12-06T19:17:23.734Z,4.80
2022-12-06T19:19:51.421Z,4.80
2022-12-06T19:22:19.150Z,4.80
2022-12-06T19:24:46.823Z,4.70
2022-12-06T19:27:15.836Z,4.80
2022-12-06T19:29:47.525Z,4.70
2022-12-06T19:32:16.885Z,4.70
2022-12-06T19:34:44.597Z,4.70
2022-12-06T19:37:12.341Z,4.60
2022-12-06T19:39:39.990Z,4.60
2022-12-06T19:42:25.336Z,4.60
2022-12-06T19:44:53.015Z,4.50
2022-12-06T19:47:22.048Z,4.60
2022-12-06T19:49:49.739Z,4.60
2022-12-06T19:52:17.431Z,4.60
2022-12-06T19:54:45.139Z,4.60
2022-12-06T19:57:12.942Z,4.60
2022-12-06T19:59:40.650Z,4.60
2022-12-06T20:02:08.514Z,4.60
2022-12-06T20:04:39.381Z,4.60
2022-12-06T20:07:08.582Z,4.50
2022-12-06T20:09:36.726Z,4.50
2022-12-06T20:12:05.449Z,4.60
2022-12-06T20:14:39.934Z,4.60
2022-12-06T20:17:08.704Z,4.60
2022-12-06T20:19:38.217Z,4.70
2022-12-06T20:22:06.074Z,4.70
2022-12-06T20:24:33.777Z,4.70
2022-12-06T20:27:01.814Z,4.70
2022-12-06T20:29:30.029Z,4.80
2022-12-06T20:31:59.254Z,4.80
2022-12-06T20:34:28.779Z,4.80
2022-12-06T20:36:58.124Z,4.80
2022-12-06T20:39:26.850Z,4.70
2022-12-06T20:41:54.734Z,4.70
2022-12-06T20:44:22.624Z,4.70
2022-12-06T20:46:50.923Z,4.70
2022-12-06T20:49:18.807Z,4.60
2022-12-06T20:51:51.280Z,4.50
2022-12-06T20:54:22.637Z,4.50
2022-12-06T20:56:53.064Z,4.40
2022-12-06T20:59:21.154Z,4.30
2022-12-06T21:01:49.178Z,4.20
2022-12-06T21:04:17.547Z,4.20
2022-12-06T21:06:45.254Z,4.10
2022-12-06T21:09:13.100Z,4.10
2022-12-06T21:11:42.150Z,4.00
2022-12-06T21:14:10.950Z,4.00
2022-12-06T21:16:39.282Z,3.90
2022-12-06T21:19:07.886Z,3.80
2022-12-06T21:21:36.723Z,3.80
2022-12-06T21:24:05.473Z,3.70
2022-12-06T21:26:33.436Z,3.70
2022-12-06T21:29:02.565Z,3.60
2022-12-06T21:31:31.335Z,3.60
2022-12-06T21:33:59.093Z,3.70
2022-12-06T21:36:27.207Z,3.70
2022-12-06T21:38:55.165Z,3.70
2022-12-06T21:41:22.893Z,3.70
2022-12-06T21:43:50.572Z,3.70
2022-12-06T21:46:20.748Z,3.70
2022-12-06T21:48:50.501Z,3.70
2022-12-06T21:51:18.195Z,3.80
2022-12-06T21:53:45.890Z,3.90
2022-12-06T21:56:15.570Z,3.90
2022-12-06T21:58:43.245Z,4.00
2022-12-06T22:01:12.265Z,4.00
2022-12-06T22:03:41.474Z,4.10
2022-12-06T22:06:10.022Z,4.00
2022-12-06T22:08:38.068Z,4.10
2022-12-06T22:11:07.094Z,4.10
2022-12-06T22:13:34.798Z,4.10
2022-12-06T22:16:02.956Z,4.10
2022-12-06T22:18:30.960Z,4.10
2022-12-06T22:21:01.229Z,3.90
2022-12-06T22:23:29.290Z,3.90
2022-12-06T22:25:57.068Z,3.80
2022-12-06T22:28:24.999Z,3.70
2022-12-06T22:30:52.916Z,3.60
2022-12-06T22:33:21.018Z,3.50
2022-12-06T22:35:48.713Z,3.40
2022-12-06T22:38:17.945Z,3.50
2022-12-06T22:40:45.624Z,3.40
2022-12-06T22:43:13.328Z,3.50
2022-12-06T22:45:41.013Z,3.50
2022-12-06T22:48:08.737Z,3.50
2022-12-06T22:50:36.425Z,3.50
2022-12-06T22:53:04.237Z,3.60
2022-12-06T22:55:33.535Z,3.60
2022-12-06T22:58:01.210Z,3.60
2022-12-06T23:00:28.964Z,3.60
2022-12-06T23:02:56.636Z,3.70
2022-12-06T23:05:24.342Z,3.70
2022-12-06T23:07:52.242Z,3.80
2022-12-06T23:10:19.964Z,3.80
2022-12-06T23:12:49.011Z,3.90
2022-12-06T23:15:16.688Z,4.00
2022-12-06T23:17:44.365Z,4.00
2022-12-06T23:20:12.322Z,4.00
2022-12-06T23:22:40.184Z,4.00
2022-12-06T23:25:08.245Z,3.90
2022-12-06T23:27:35.941Z,3.80
2022-12-06T23:30:05.328Z,3.80
2022-12-06T23:32:33.015Z,3.80
2022-12-06T23:35:00.686Z,3.80
2022-12-06T23:37:28.501Z,3.90
2022-12-06T23:39:56.186Z,4.00
2022-12-06T23:42:23.867Z,4.00
2022-12-06T23:44:51.552Z,4.00
2022-12-06T23:47:20.593Z,4.10
2022-12-06T23:49:48.309Z,4.10
2022-12-06T23:52:15.997Z,4.10
2022-12-06T23:54:43.684Z,4.10
2022-12-06T23:57:14.780Z,4.10
2022-12-06T23:59:42.552Z,4.10
